Time;durP1;ratioP1;P1;durP2;ratioP2;P2;SDS_P1;SDS_P2;PMS_P1;PMS_P2;Temp;Humidity;BMP_temperature;BMP_pressure;BME280_temperature;BME280_humidity;BME280_pressure;Samples;Min_cycle;Max_cycle;Signal;HPM_P1;HPM_P2
2020/12/09 13:03:59;;;;;;;1.60;1.48;;;14.30;67.90;;;;;;5085071;28;20435;-73
2020/12/09 13:06:25;;;;;;;2.47;1.70;;;14.30;68.00;;;;;;5080275;28;20037;-71
2020/12/09 13:08:51;;;;;;;2.22;1.50;;;14.30;68.00;;;;;;5065322;28;20062;-73
2020/12/09 13:11:17;;;;;;;1.67;1.52;;;14.20;67.90;;;;;;5092113;28;20086;-75
2020/12/09 13:13:42;;;;;;;1.70;1.20;;;14.30;68.00;;;;;;5087993;28;20032;-73
2020/12/09 13:16:09;;;;;;;1.58;1.48;;;14.30;68.00;;;;;;5093211;28;20036;-73
2020/12/09 13:18:35;;;;;;;1.70;1.55;;;14.20;68.00;;;;;;5092884;28;20028;-73
2020/12/09 13:21:01;;;;;;;2.88;1.35;;;14.20;68.00;;;;;;5091688;28;20055;-78
2020/12/09 13:23:27;;;;;;;1.63;1.42;;;14.30;68.00;;;;;;5074663;28;20135;-73
2020/12/09 13:25:53;;;;;;;1.85;1.63;;;14.30;68.00;;;;;;5091960;28;20103;-72
2020/12/09 13:28:18;;;;;;;2.00;1.40;;;14.30;68.00;;;;;;5083407;28;20051;-72
2020/12/09 13:30:44;;;;;;;2.25;1.65;;;14.30;68.00;;;;;;5088605;28;20086;-72
2020/12/09 13:33:12;;;;;;;1.40;1.30;;;14.30;68.00;;;;;;5074381;28;20047;-73
2020/12/09 13:35:45;;;;;;;1.25;1.10;;;14.30;68.00;;;;;;5089022;28;20031;-73
2020/12/09 13:38:11;;;;;;;2.08;1.52;;;14.20;68.00;;;;;;5089626;28;20043;-72
2020/12/09 13:40:38;;;;;;;2.03;1.52;;;14.20;68.00;;;;;;5076739;28;20047;-72
2020/12/09 13:43:06;;;;;;;1.75;1.40;;;14.20;68.00;;;;;;5084992;28;20061;-72
2020/12/09 13:45:33;;;;;;;1.60;1.50;;;14.30;68.00;;;;;;5094199;28;20047;-72
2020/12/09 13:47:58;;;;;;;2.08;1.73;;;14.20;68.10;;;;;;5096748;28;20117;-71
2020/12/09 13:50:24;;;;;;;2.00;1.55;;;14.30;68.10;;;;;;5072353;28;20064;-72
2020/12/09 13:52:50;;;;;;;1.98;1.35;;;14.20;68.00;;;;;;5085434;28;20035;-74
2020/12/09 13:55:15;;;;;;;2.20;1.52;;;14.20;68.10;;;;;;5095835;28;20036;-72
2020/12/09 13:57:41;;;;;;;1.30;1.20;;;14.20;68.10;;;;;;5096291;28;20102;-74
2020/12/09 14:00:07;;;;;;;1.40;1.30;;;14.30;68.00;;;;;;5071859;28;20115;-72
2020/12/09 14:02:33;;;;;;;1.65;1.42;;;14.30;68.00;;;;;;5085872;28;20048;-72
2020/12/09 14:05:00;;;;;;;1.83;1.50;;;14.20;68.00;;;;;;5092846;28;20032;-74
2020/12/09 14:07:25;;;;;;;1.30;1.20;;;14.20;68.00;;;;;;5090821;28;20043;-72
2020/12/09 14:09:53;;;;;;;1.95;1.48;;;14.20;68.00;;;;;;5093126;28;20036;-72
2020/12/09 14:12:19;;;;;;;1.48;1.33;;;14.20;68.10;;;;;;5072020;28;20033;-72
2020/12/09 14:14:44;;;;;;;2.00;1.50;;;14.20;68.10;;;;;;5090646;28;20043;-72
2020/12/09 14:17:11;;;;;;;2.10;1.50;;;14.20;68.10;;;;;;5077382;28;20043;-72
2020/12/09 14:19:38;;;;;;;2.00;1.52;;;14.20;68.00;;;;;;5076069;28;20122;-72
2020/12/09 14:22:04;;;;;;;1.95;1.42;;;14.30;68.00;;;;;;5094638;28;20036;-72
2020/12/09 14:24:32;;;;;;;1.52;1.40;;;14.20;68.10;;;;;;5094505;28;20039;-72
2020/12/09 14:26:59;;;;;;;1.75;1.48;;;14.30;68.00;;;;;;5078078;28;20496;-72
2020/12/09 14:29:24;;;;;;;1.55;1.40;;;14.20;68.00;;;;;;5095745;28;20469;-73
2020/12/09 14:31:54;;;;;;;1.77;1.33;;;14.30;68.00;;;;;;5089542;28;20082;-71
2020/12/09 14:34:21;;;;;;;1.50;1.35;;;14.20;68.00;;;;;;5094183;28;20039;-72
2020/12/09 14:36:48;;;;;;;1.70;1.50;;;14.20;68.10;;;;;;5093298;28;20045;-71
2020/12/09 14:39:15;;;;;;;1.37;1.20;;;14.30;68.10;;;;;;5095929;28;20028;-72
2020/12/09 14:41:50;;;;;;;1.67;1.33;;;14.20;68.10;;;;;;5083701;28;20136;-72
2020/12/09 14:44:18;;;;;;;2.08;1.30;;;14.20;68.10;;;;;;5094382;28;20169;-72
2020/12/09 14:46:47;;;;;;;1.83;1.40;;;14.20;68.10;;;;;;5095577;28;20032;-73
2020/12/09 14:49:18;;;;;;;1.33;1.17;;;14.20;68.10;;;;;;5095010;28;20331;-72
2020/12/09 14:51:44;;;;;;;1.52;1.20;;;14.20;68.10;;;;;;5080057;28;20032;-72
2020/12/09 14:54:11;;;;;;;1.30;1.20;;;14.30;68.10;;;;;;5093064;28;20040;-72
2020/12/09 14:56:37;;;;;;;1.73;1.30;;;14.20;68.10;;;;;;5094384;28;20107;-73
2020/12/09 14:59:04;;;;;;;1.73;1.40;;;14.20;68.10;;;;;;5093601;28;20024;-78
2020/12/09 15:01:30;;;;;;;1.02;0.93;;;14.20;68.20;;;;;;5094612;28;20119;-72
2020/12/09 15:03:56;;;;;;;1.92;1.30;;;14.20;68.20;;;;;;5086160;28;20067;-73
2020/12/09 15:06:21;;;;;;;1.73;1.30;;;14.20;68.20;;;;;;5093460;28;20036;-73
2020/12/09 15:08:47;;;;;;;1.45;1.30;;;14.20;68.20;;;;;;5083551;28;20427;-72
2020/12/09 15:11:22;;;;;;;1.83;1.40;;;14.20;68.20;;;;;;5094346;28;20150;-72
2020/12/09 15:13:48;;;;;;;1.67;1.33;;;14.20;68.20;;;;;;5080732;28;20165;-72
2020/12/09 15:16:15;;;;;;;1.85;1.50;;;14.20;68.20;;;;;;5073880;28;20131;-72
2020/12/09 15:18:41;;;;;;;1.52;1.30;;;14.20;68.20;;;;;;5092529;28;20024;-74
2020/12/09 15:21:07;;;;;;;1.67;1.30;;;14.20;68.20;;;;;;5093584;28;20036;-72
2020/12/09 15:23:34;;;;;;;1.58;1.27;;;14.20;68.20;;;;;;5093730;28;20082;-73
2020/12/09 15:25:59;;;;;;;1.33;1.10;;;14.20;68.30;;;;;;5075402;28;20036;-72
2020/12/09 15:28:25;;;;;;;1.90;1.38;;;14.20;68.30;;;;;;5073833;28;20040;-73
2020/12/09 15:30:51;;;;;;;1.63;1.27;;;14.20;68.30;;;;;;5073385;28;20040;-73
2020/12/09 15:33:17;;;;;;;1.50;1.27;;;14.20;68.30;;;;;;5093866;28;20126;-72
2020/12/09 15:35:42;;;;;;;1.35;1.15;;;14.20;68.30;;;;;;5092172;28;20051;-72
2020/12/09 15:38:08;;;;;;;2.13;1.42;;;14.20;68.30;;;;;;5086982;28;20032;-72
2020/12/09 15:40:34;;;;;;;1.40;1.08;;;14.20;68.30;;;;;;5081042;28;20039;-73
2020/12/09 15:43:00;;;;;;;1.77;1.20;;;14.10;68.30;;;;;;5093854;28;20088;-72
2020/12/09 15:45:26;;;;;;;1.48;1.38;;;14.20;68.30;;;;;;5091247;28;20533;-72
2020/12/09 15:47:52;;;;;;;1.58;1.30;;;14.20;68.30;;;;;;5090543;28;20043;-72
2020/12/09 15:50:18;;;;;;;1.98;1.40;;;14.10;68.30;;;;;;5088804;28;20032;-72
2020/12/09 15:52:44;;;;;;;1.60;1.48;;;14.20;68.30;;;;;;5088705;28;20400;-74
2020/12/09 15:55:12;;;;;;;1.23;0.95;;;14.20;68.30;;;;;;5092425;28;20032;-73
2020/12/09 15:57:39;;;;;;;1.57;1.47;;;14.20;68.30;;;;;;5090659;28;20040;-72
2020/12/09 16:00:10;;;;;;;2.75;1.30;;;14.20;68.30;;;;;;5088895;28;20292;-72
2020/12/09 16:02:37;;;;;;;1.40;1.27;;;14.20;68.30;;;;;;5074526;28;20386;-72
2020/12/09 16:05:04;;;;;;;1.50;1.27;;;14.20;68.30;;;;;;5084267;28;20036;-72
2020/12/09 16:07:31;;;;;;;1.50;1.27;;;14.20;68.30;;;;;;5093183;28;20122;-72
2020/12/09 16:09:58;;;;;;;1.55;1.20;;;14.20;68.30;;;;;;5092707;28;20104;-73
2020/12/09 16:12:24;;;;;;;1.73;1.45;;;14.20;68.30;;;;;;5092841;28;20059;-73
2020/12/09 16:14:49;;;;;;;2.03;1.35;;;14.20;68.30;;;;;;5092862;28;20071;-73
2020/12/09 16:17:15;;;;;;;1.50;1.17;;;14.20;68.30;;;;;;5091596;28;20043;-72
2020/12/09 16:19:41;;;;;;;1.55;1.30;;;14.20;68.30;;;;;;5066027;28;20032;-73
2020/12/09 16:22:07;;;;;;;1.38;1.27;;;14.20;68.30;;;;;;5090039;28;20109;-73
2020/12/09 16:24:33;;;;;;;1.50;1.40;;;14.20;68.30;;;;;;5090274;28;20124;-72
2020/12/09 16:26:59;;;;;;;1.50;1.30;;;14.20;68.30;;;;;;5091805;28;20119;-72
2020/12/09 16:29:25;;;;;;;1.33;1.23;;;14.20;68.30;;;;;;5073495;28;20036;-73
2020/12/09 16:31:51;;;;;;;1.20;1.10;;;14.20;68.30;;;;;;5091826;28;20094;-73
2020/12/09 16:34:16;;;;;;;1.65;1.33;;;14.20;68.30;;;;;;5071441;28;20059;-74
2020/12/09 16:36:45;;;;;;;1.23;1.02;;;14.20;68.30;;;;;;5091716;28;20036;-72
2020/12/09 16:39:15;;;;;;;1.50;1.25;;;14.20;68.30;;;;;;5069791;28;20475;-73
2020/12/09 16:41:45;;;;;;;1.35;1.13;;;14.10;68.30;;;;;;5086944;28;20043;-72
2020/12/09 16:44:11;;;;;;;1.08;0.95;;;14.20;68.30;;;;;;5090695;28;20036;-72
2020/12/09 16:46:37;;;;;;;1.83;1.30;;;14.20;68.40;;;;;;5095967;28;20491;-77
2020/12/09 16:49:03;;;;;;;1.35;1.20;;;14.10;68.40;;;;;;5079663;28;20082;-72
2020/12/09 16:51:28;;;;;;;1.80;1.15;;;14.10;68.40;;;;;;5092016;28;20028;-72
2020/12/09 16:53:54;;;;;;;1.42;1.33;;;14.10;68.40;;;;;;5073094;28;20028;-72
2020/12/09 16:56:19;;;;;;;1.30;1.02;;;14.20;68.30;;;;;;5090482;28;20032;-73
2020/12/09 16:58:45;;;;;;;1.48;1.30;;;14.20;68.40;;;;;;5090521;28;20036;-74
2020/12/09 17:01:11;;;;;;;1.48;1.30;;;14.20;68.30;;;;;;5092306;28;20086;-73
2020/12/09 17:03:37;;;;;;;1.20;1.10;;;14.10;68.30;;;;;;5062904;28;20390;-72
2020/12/09 17:06:03;;;;;;;1.38;1.25;;;14.20;68.30;;;;;;5047364;28;20037;-72
2020/12/09 17:08:29;;;;;;;2.25;1.50;;;14.10;68.30;;;;;;5061025;28;20549;-73
2020/12/09 17:10:57;;;;;;;1.50;1.20;;;14.10;68.30;;;;;;5063512;28;20076;-77
2020/12/09 17:13:23;;;;;;;1.48;1.30;;;14.20;68.30;;;;;;5043440;28;20385;-73
2020/12/09 17:15:49;;;;;;;1.50;1.33;;;14.20;68.30;;;;;;5043374;28;20037;-74
2020/12/09 17:18:14;;;;;;;1.08;0.95;;;14.20;68.30;;;;;;5062466;28;20033;-75
2020/12/09 17:20:40;;;;;;;1.10;1.00;;;14.20;68.40;;;;;;5045242;28;20049;-73
2020/12/09 17:23:06;;;;;;;1.40;1.25;;;14.10;68.40;;;;;;5044727;28;20122;-72
2020/12/09 17:25:31;;;;;;;1.90;1.15;;;14.20;68.40;;;;;;5048548;28;20425;-72
2020/12/09 17:27:57;;;;;;;1.58;1.15;;;14.10;68.30;;;;;;5046584;28;20041;-74
2020/12/09 17:30:23;;;;;;;1.38;1.20;;;14.20;68.30;;;;;;5041788;28;20036;-72
2020/12/09 17:32:48;;;;;;;1.50;1.20;;;14.20;68.30;;;;;;5047676;28;20116;-74
2020/12/09 17:35:14;;;;;;;3.47;1.50;;;14.20;68.30;;;;;;5043205;28;20068;-74
2020/12/09 17:37:40;;;;;;;1.42;1.33;;;14.10;68.30;;;;;;5045425;28;20087;-73
2020/12/09 17:40:07;;;;;;;1.20;1.10;;;14.10;68.30;;;;;;5048175;28;20580;-73
2020/12/09 17:42:33;;;;;;;1.17;1.05;;;14.10;68.40;;;;;;5051530;28;20041;-73
2020/12/09 17:45:02;;;;;;;1.50;1.40;;;14.20;68.40;;;;;;5049719;28;20043;-72
2020/12/09 17:47:28;;;;;;;1.60;1.40;;;14.20;68.40;;;;;;5063456;28;20048;-72
2020/12/09 17:49:54;;;;;;;1.23;1.13;;;14.20;68.40;;;;;;5048135;28;20394;-72
2020/12/09 17:52:19;;;;;;;1.92;1.58;;;14.20;68.40;;;;;;5037901;28;20044;-73
2020/12/09 17:54:46;;;;;;;1.70;1.10;;;14.20;68.40;;;;;;5058242;28;20041;-72
2020/12/09 17:57:13;;;;;;;1.15;1.00;;;14.20;68.40;;;;;;5046786;28;20032;-74
2020/12/09 18:05:55;;;;;;;;;;;14.20;68.40;;;;;;5060502;23;20056;-73
2020/12/09 18:08:21;;;;;;;1.38;1.27;;;14.10;68.30;;;;;;4984693;28;20020;-71
2020/12/09 18:10:48;;;;;;;1.30;1.20;;;14.20;68.30;;;;;;4972943;28;20038;-75
2020/12/09 18:13:14;;;;;;;1.10;1.00;;;14.20;68.40;;;;;;4973758;28;20399;-72
2020/12/09 18:15:40;;;;;;;1.33;1.23;;;14.10;68.40;;;;;;4992848;28;20034;-72
2020/12/09 18:18:05;;;;;;;1.48;1.23;;;14.20;68.40;;;;;;4974044;28;20102;-72
2020/12/09 18:20:31;;;;;;;1.50;1.10;;;14.10;68.40;;;;;;4990573;28;20034;-72
2020/12/09 18:22:57;;;;;;;1.25;1.08;;;14.10;68.40;;;;;;4989573;28;20112;-72
2020/12/09 18:25:23;;;;;;;1.35;1.15;;;14.20;68.40;;;;;;4993744;28;20031;-73
2020/12/09 18:27:49;;;;;;;1.30;1.20;;;14.10;68.40;;;;;;4992968;28;20046;-76
2020/12/09 18:30:15;;;;;;;1.30;1.00;;;14.20;68.40;;;;;;4976803;28;20038;-72
2020/12/09 18:32:43;;;;;;;1.45;1.35;;;14.10;68.40;;;;;;4995454;28;20050;-73
2020/12/09 18:35:11;;;;;;;2.65;1.30;;;14.10;68.40;;;;;;4993715;28;20045;-73
2020/12/09 18:37:37;;;;;;;1.48;1.15;;;14.20;68.40;;;;;;4994060;28;20050;-72
2020/12/09 18:40:04;;;;;;;1.95;1.17;;;14.10;68.40;;;;;;4992667;28;20101;-72
2020/12/09 18:42:30;;;;;;;1.20;1.10;;;14.20;68.40;;;;;;4994166;28;20053;-72
2020/12/09 18:44:56;;;;;;;1.13;1.00;;;14.20;68.40;;;;;;4992302;28;20038;-72
2020/12/09 18:47:21;;;;;;;1.27;1.02;;;14.20;68.40;;;;;;4995230;28;20034;-72
2020/12/09 18:49:47;;;;;;;1.52;1.13;;;14.20;68.40;;;;;;4994807;28;20440;-73
2020/12/09 18:52:13;;;;;;;0.75;0.73;;;14.10;68.40;;;;;;4995481;28;20487;-72
2020/12/09 18:54:39;;;;;;;1.20;1.10;;;14.20;68.40;;;;;;4977336;28;20034;-72
2020/12/09 18:57:07;;;;;;;1.63;1.25;;;14.10;68.30;;;;;;4993217;28;20038;-72
2020/12/09 18:59:36;;;;;;;1.63;0.98;;;14.10;68.40;;;;;;4977716;28;20073;-72
2020/12/09 19:02:02;;;;;;;1.63;1.23;;;14.20;68.30;;;;;;4993413;28;20388;-72
2020/12/09 19:04:29;;;;;;;1.20;1.10;;;14.10;68.40;;;;;;4994969;28;20488;-74
2020/12/09 19:06:55;;;;;;;1.00;0.90;;;14.20;68.30;;;;;;4994016;28;20046;-72
2020/12/09 19:09:21;;;;;;;1.33;1.20;;;14.20;68.30;;;;;;4977658;28;21932;-72
2020/12/09 19:11:46;;;;;;;1.45;1.10;;;14.20;68.30;;;;;;4993507;28;20046;-75
2020/12/09 19:14:12;;;;;;;2.55;1.10;;;14.20;68.30;;;;;;4994205;28;20049;-72
2020/12/09 19:16:38;;;;;;;1.02;0.93;;;14.10;68.40;;;;;;4976325;28;20097;-73
2020/12/09 19:19:05;;;;;;;1.63;1.20;;;14.20;68.30;;;;;;4993440;28;20542;-73
2020/12/09 19:21:31;;;;;;;1.38;1.27;;;14.20;68.40;;;;;;4991465;28;20121;-72
2020/12/09 19:23:57;;;;;;;1.10;1.00;;;14.20;68.40;;;;;;4986202;28;20516;-72
2020/12/09 19:26:27;;;;;;;1.40;1.08;;;14.20;68.40;;;;;;4994033;28;20435;-72
2020/12/09 19:28:56;;;;;;;0.88;0.85;;;14.20;68.30;;;;;;4994818;28;20058;-72
2020/12/09 19:31:22;;;;;;;;;;;14.20;68.40;;;;;;4992062;28;20105;-76
2020/12/09 19:33:48;;;;;;;1.48;1.25;;;14.10;68.30;;;;;;4993308;28;20000;-72
2020/12/09 19:36:14;;;;;;;2.00;1.63;;;14.20;68.30;;;;;;4993741;28;20105;-72
2020/12/09 19:38:40;;;;;;;1.33;1.02;;;14.10;68.30;;;;;;4992578;28;20065;-72
2020/12/09 19:41:14;;;;;;;1.35;1.05;;;14.10;68.30;;;;;;4990530;28;20475;-72
2020/12/09 19:43:41;;;;;;;1.13;0.90;;;14.10;68.40;;;;;;4972688;28;20046;-72
2020/12/09 19:46:07;;;;;;;1.38;1.20;;;14.10;68.40;;;;;;4991251;28;20034;-72
2020/12/09 19:48:33;;;;;;;1.60;0.95;;;14.20;68.40;;;;;;4990792;28;20046;-72
2020/12/09 19:50:58;;;;;;;1.70;1.30;;;14.20;68.30;;;;;;4994119;28;20038;-73
2020/12/09 19:53:24;;;;;;;1.75;1.35;;;14.20;68.30;;;;;;4972700;28;20038;-72
2020/12/09 19:55:49;;;;;;;1.30;1.10;;;14.20;68.40;;;;;;4992247;28;20483;-76
2020/12/09 19:58:15;;;;;;;1.40;1.25;;;14.20;68.40;;;;;;4975537;28;20467;-72
2020/12/09 20:00:41;;;;;;;1.40;1.20;;;14.10;68.40;;;;;;4975145;28;20041;-72
2020/12/09 20:03:08;;;;;;;1.00;0.90;;;14.20;68.30;;;;;;4991299;28;20038;-73
2020/12/09 20:05:34;;;;;;;0.90;0.90;;;14.10;68.30;;;;;;4972830;28;20039;-73
2020/12/09 20:08:00;;;;;;;1.00;0.90;;;14.10;68.30;;;;;;4988612;28;20526;-75
2020/12/09 20:10:25;;;;;;;1.25;1.15;;;14.10;68.30;;;;;;4991279;28;20038;-72
2020/12/09 20:12:51;;;;;;;1.45;1.20;;;14.20;68.30;;;;;;4989897;28;20050;-72
2020/12/09 20:15:18;;;;;;;0.80;0.80;;;14.20;68.40;;;;;;4990184;28;20388;-73
2020/12/09 20:17:44;;;;;;;1.75;1.48;;;14.20;68.30;;;;;;4984867;28;20030;-76
2020/12/09 20:20:11;;;;;;;1.10;1.00;;;14.20;68.30;;;;;;4986808;28;20424;-72
2020/12/09 20:22:41;;;;;;;1.48;1.30;;;14.20;68.40;;;;;;4970924;28;20093;-72
2020/12/09 20:25:06;;;;;;;1.58;1.33;;;14.20;68.40;;;;;;4989228;28;20117;-73
2020/12/09 20:27:32;;;;;;;1.50;1.27;;;14.20;68.40;;;;;;4988202;28;20860;-73
2020/12/09 20:29:58;;;;;;;1.42;1.10;;;14.10;68.40;;;;;;4966509;28;20077;-72
2020/12/09 20:32:24;;;;;;;1.10;1.00;;;14.10;68.40;;;;;;4955216;28;20042;-72
2020/12/09 20:34:50;;;;;;;1.45;0.80;;;14.20;68.40;;;;;;4990738;28;20035;-72
2020/12/09 20:37:15;;;;;;;1.58;1.10;;;14.20;68.40;;;;;;4969770;28;20042;-73
2020/12/09 20:39:41;;;;;;;1.85;1.25;;;14.10;68.40;;;;;;4989492;28;20062;-72
2020/12/09 20:42:07;;;;;;;1.38;1.08;;;14.10;68.40;;;;;;4988572;28;20050;-76
2020/12/09 20:44:33;;;;;;;1.35;1.10;;;14.20;68.30;;;;;;4986971;28;20042;-72
2020/12/09 20:46:59;;;;;;;1.50;1.30;;;14.20;68.30;;;;;;4985980;28;20042;-73
2020/12/09 20:49:26;;;;;;;1.33;1.15;;;14.10;68.30;;;;;;4991025;28;20031;-73
2020/12/09 20:51:52;;;;;;;1.65;1.10;;;14.20;68.30;;;;;;4972750;28;20069;-73
2020/12/09 20:54:18;;;;;;;1.48;1.20;;;14.20;68.30;;;;;;4991428;28;20081;-73
2020/12/09 20:56:45;;;;;;;1.52;1.30;;;14.20;68.30;;;;;;4969382;28;20443;-73
2020/12/09 20:59:12;;;;;;;1.25;1.00;;;14.20;68.40;;;;;;4973714;28;20158;-74
2020/12/09 21:01:41;;;;;;;1.00;0.90;;;14.20;68.40;;;;;;4987025;28;20038;-72
2020/12/09 21:04:08;;;;;;;1.30;1.00;;;14.20;68.40;;;;;;4967562;28;20046;-74
2020/12/09 21:06:35;;;;;;;1.15;1.05;;;14.10;68.30;;;;;;4974548;28;20077;-73
2020/12/09 21:09:02;;;;;;;1.00;0.90;;;14.20;68.40;;;;;;4974236;28;20045;-73
2020/12/09 21:11:28;;;;;;;0.80;0.80;;;14.20;68.40;;;;;;4973849;28;20527;-74
2020/12/09 21:13:53;;;;;;;1.30;1.13;;;14.20;68.30;;;;;;4987332;28;20066;-73
2020/12/09 21:16:19;;;;;;;1.33;1.15;;;14.10;68.30;;;;;;4972088;28;20112;-73
2020/12/09 21:18:46;;;;;;;1.50;1.00;;;14.20;68.40;;;;;;4974098;28;20435;-72
2020/12/09 21:21:17;;;;;;;1.30;0.93;;;14.10;68.40;;;;;;4993481;28;20034;-72
2020/12/09 21:23:43;;;;;;;1.13;1.00;;;14.20;68.30;;;;;;4972274;28;20038;-72
2020/12/09 21:26:10;;;;;;;1.27;1.17;;;14.20;68.30;;;;;;4983098;28;20193;-73
2020/12/09 21:28:36;;;;;;;0.93;0.83;;;14.20;68.40;;;;;;4990686;28;20027;-73
2020/12/09 21:31:02;;;;;;;0.95;0.93;;;14.20;68.30;;;;;;4975559;28;20860;-73
2020/12/09 21:33:27;;;;;;;1.15;1.05;;;14.20;68.30;;;;;;4989112;28;20070;-73
2020/12/09 21:35:53;;;;;;;1.00;0.93;;;14.20;68.40;;;;;;4991953;28;20050;-74
2020/12/09 21:38:21;;;;;;;1.95;1.02;;;14.10;68.40;;;;;;4973304;28;20033;-73
2020/12/09 21:40:49;;;;;;;1.13;1.02;;;14.20;68.40;;;;;;4991562;28;20026;-73
2020/12/09 21:43:15;;;;;;;0.80;0.80;;;14.20;68.40;;;;;;4989552;28;20427;-73
2020/12/09 21:45:41;;;;;;;0.95;0.80;;;14.20;68.40;;;;;;4986676;28;20053;-76
2020/12/09 21:48:07;;;;;;;1.02;0.93;;;14.10;68.40;;;;;;4989293;28;20042;-73
2020/12/09 21:50:33;;;;;;;1.15;1.05;;;14.20;68.40;;;;;;4990642;28;20080;-72
2020/12/09 21:52:58;;;;;;;1.35;0.80;;;14.10;68.30;;;;;;4992401;28;20042;-71
2020/12/09 21:55:24;;;;;;;1.20;1.10;;;14.20;68.40;;;;;;4992775;28;20069;-73
2020/12/09 21:57:50;;;;;;;0.80;0.80;;;14.10;68.40;;;;;;4974169;28;20038;-71
2020/12/09 22:00:17;;;;;;;1.08;0.90;;;14.10;68.40;;;;;;4994739;28;20503;-73
2020/12/09 22:02:50;;;;;;;1.00;0.88;;;14.20;68.40;;;;;;4976946;28;20030;-71
2020/12/09 22:05:16;;;;;;;1.85;1.10;;;14.20;68.40;;;;;;4987740;28;20042;-71
2020/12/09 22:07:43;;;;;;;1.00;0.90;;;14.20;68.40;;;;;;4973290;28;20126;-71
2020/12/09 22:10:09;;;;;;;1.00;0.90;;;14.10;68.40;;;;;;4993343;28;20373;-71
2020/12/09 22:12:35;;;;;;;0.82;0.75;;;14.10;68.40;;;;;;4991767;28;20471;-71
2020/12/09 22:15:04;;;;;;;2.55;1.23;;;14.10;68.30;;;;;;4978395;28;20391;-71
2020/12/09 22:17:29;;;;;;;;;;;14.20;68.40;;;;;;4994630;28;20041;-71
2020/12/09 22:19:55;;;;;;;0.88;0.75;;;14.10;68.30;;;;;;4977646;28;19928;-73
2020/12/09 22:22:21;;;;;;;0.82;0.80;;;14.10;68.40;;;;;;4990593;28;20510;-72
2020/12/09 22:24:46;;;;;;;1.30;1.08;;;14.10;68.40;;;;;;4993400;28;20042;-74
2020/12/09 22:27:12;;;;;;;1.75;1.00;;;14.10;68.40;;;;;;4990522;28;20065;-71
2020/12/09 22:29:38;;;;;;;1.02;0.93;;;14.20;68.40;;;;;;4971834;28;20030;-72
2020/12/09 22:32:04;;;;;;;1.35;1.10;;;14.10;68.40;;;;;;4975166;28;20819;-72
2020/12/09 22:34:30;;;;;;;0.90;0.82;;;14.20;68.40;;;;;;4995944;28;20507;-72
2020/12/09 22:36:55;;;;;;;1.13;1.02;;;14.10;68.30;;;;;;4993751;28;20081;-72
2020/12/09 22:39:21;;;;;;;1.10;1.00;;;14.10;68.40;;;;;;4993085;28;20085;-71
2020/12/09 22:41:47;;;;;;;1.00;0.93;;;14.20;68.40;;;;;;4994718;28;20041;-72
2020/12/09 22:44:13;;;;;;;1.10;0.98;;;14.10;68.40;;;;;;4992899;28;20050;-74
2020/12/09 22:46:38;;;;;;;1.52;1.23;;;14.10;68.40;;;;;;4997462;28;20041;-77
2020/12/09 22:49:04;;;;;;;1.08;0.90;;;14.20;68.40;;;;;;4966669;28;20125;-72
2020/12/09 22:51:30;;;;;;;1.65;1.25;;;14.10;68.30;;;;;;4993112;28;20093;-71
2020/12/09 22:53:56;;;;;;;1.08;0.98;;;14.20;68.40;;;;;;4960866;28;20136;-71
2020/12/09 22:56:22;;;;;;;1.58;0.90;;;14.10;68.40;;;;;;4974090;28;20488;-72
2020/12/09 22:58:48;;;;;;;0.73;0.73;;;14.10;68.40;;;;;;4976227;28;20042;-73
2020/12/09 23:01:20;;;;;;;1.38;1.02;;;14.10;68.40;;;;;;4993889;28;20056;-73
2020/12/09 23:03:48;;;;;;;1.08;0.88;;;14.10;68.40;;;;;;4994824;28;20498;-72
2020/12/09 23:06:24;;;;;;;1.00;0.77;;;14.20;68.40;;;;;;4992467;28;20066;-71
2020/12/09 23:08:51;;;;;;;1.55;1.20;;;14.20;68.40;;;;;;4994236;28;20041;-73
2020/12/09 23:11:17;;;;;;;0.82;0.82;;;14.20;68.40;;;;;;4977407;28;20043;-72
2020/12/09 23:13:43;;;;;;;1.00;0.90;;;14.10;68.40;;;;;;4993014;28;20089;-71
2020/12/09 23:16:09;;;;;;;0.85;0.80;;;14.10;68.40;;;;;;4992354;28;20030;-71
2020/12/09 23:18:35;;;;;;;3.05;1.20;;;14.10;68.40;;;;;;4992681;28;20057;-72
2020/12/09 23:21:02;;;;;;;1.50;1.00;;;14.20;68.40;;;;;;4976235;28;20042;-75
2020/12/09 23:23:28;;;;;;;1.10;1.00;;;14.10;68.40;;;;;;4993727;28;20053;-72
2020/12/09 23:25:54;;;;;;;1.17;1.05;;;14.10;68.40;;;;;;4991938;28;20043;-72
2020/12/09 23:28:20;;;;;;;1.25;1.08;;;14.10;68.40;;;;;;4992254;28;20049;-72
2020/12/09 23:30:47;;;;;;;1.05;0.90;;;14.10;68.40;;;;;;4992326;28;20435;-71
2020/12/09 23:33:13;;;;;;;1.73;1.17;;;14.10;68.40;;;;;;4971035;28;20124;-72
2020/12/09 23:35:39;;;;;;;1.00;0.90;;;14.10;68.40;;;;;;4984796;28;20531;-72
2020/12/09 23:38:04;;;;;;;1.17;0.90;;;14.10;68.40;;;;;;4990425;28;20070;-72
2020/12/09 23:40:30;;;;;;;1.00;0.90;;;14.10;68.40;;;;;;4993894;28;20031;-72
2020/12/09 23:42:56;;;;;;;1.08;0.80;;;14.10;68.40;;;;;;4992970;28;20388;-72
2020/12/09 23:45:22;;;;;;;0.70;0.70;;;14.20;68.40;;;;;;4994280;28;20030;-71
2020/12/09 23:47:48;;;;;;;1.00;0.82;;;14.20;68.40;;;;;;4976722;28;20129;-72
2020/12/09 23:50:15;;;;;;;1.10;0.98;;;14.10;68.40;;;;;;4993114;28;20035;-71
2020/12/09 23:52:44;;;;;;;0.70;0.70;;;14.10;68.40;;;;;;4968610;28;20495;-72
2020/12/09 23:55:11;;;;;;;0.80;0.80;;;14.10;68.30;;;;;;4963787;28;20089;-72
2020/12/09 23:57:41;;;;;;;1.25;0.95;;;14.20;68.30;;;;;;4993796;28;20026;-71
